Terminal Aerodrome Forecast
Issued by NWS Cleveland, OH

Home | Current Version | Previous Version | Text Only | Print | Product List | Glossary On
Versions: 1 2 3 4 5 6 7 8 9 10 11 12 13 14 15 16 17 18 19 20
710
FTUS41 KCLE 251133
TAFMFD
TAF
KMFD 251133Z 2512/2612 12010KT P6SM VCSH SCT009 OVC012
      TEMPO 2513/2515 BKN009 OVC012
     FM251600 17006KT 5SM -SHRA SCT015 OVC020
     FM252300 27005KT 5SM -SHRA SCT007 OVC015
     FM260400 29007KT P6SM OVC007=

USA.gov is the U.S. government's official web portal to all federal, state and local government web resources and services.